Terminal Aerodrome Forecast
Issued by NWS Amarillo, TX

Current Version | Previous Version | Text Only | Print | Product List | Glossary Off
Versions: 1 2 3 4 5 6 7 8 9 10 11 12 13 14 15 16 17 18 19 20 21

507
FTUS44 KAMA 051120
TAFDHT
TAF
KDHT 051120Z 0512/0612 36014G23KT P6SM BKN100
     FM051500 01026G35KT P6SM BKN080
     FM051900 01026G35KT P6SM BKN020
     FM060100 31010KT P6SM SKC=

USA.gov is the U.S. government's official web portal to all federal, state and local government web resources and services.